sensor_id;sensor_type;location;lat;lon;timestamp;pressure;altitude;pressure_sealevel;temperature;humidity
32747;BME280;19118;50.860;13.662;2023-12-29T00:02:38;96603.09;;;6.09;100.00
32747;BME280;19118;50.860;13.662;2023-12-29T00:07:38;96607.28;;;6.03;100.00
32747;BME280;19118;50.860;13.662;2023-12-29T00:12:39;96593.34;;;6.32;100.00
32747;BME280;19118;50.860;13.662;2023-12-29T00:17:39;96592.00;;;6.51;100.00
32747;BME280;19118;50.860;13.662;2023-12-29T00:22:40;96580.25;;;6.47;100.00
32747;BME280;19118;50.860;13.662;2023-12-29T00:27:40;96570.69;;;6.76;100.00
32747;BME280;19118;50.860;13.662;2023-12-29T00:32:41;96565.22;;;6.77;100.00
32747;BME280;19118;50.860;13.662;2023-12-29T00:37:42;96565.03;;;6.93;100.00
32747;BME280;19118;50.860;13.662;2023-12-29T00:42:42;96555.16;;;7.17;100.00
32747;BME280;19118;50.860;13.662;2023-12-29T00:47:42;96552.72;;;7.15;100.00
32747;BME280;19118;50.860;13.662;2023-12-29T00:52:43;96559.16;;;7.13;100.00
32747;BME280;19118;50.860;13.662;2023-12-29T00:57:43;96553.34;;;7.17;100.00
32747;BME280;19118;50.860;13.662;2023-12-29T01:02:43;96546.31;;;7.24;100.00
32747;BME280;19118;50.860;13.662;2023-12-29T01:07:44;96537.56;;;7.17;100.00
32747;BME280;19118;50.860;13.662;2023-12-29T01:12:44;96535.56;;;7.19;100.00
32747;BME280;19118;50.860;13.662;2023-12-29T01:17:45;96541.34;;;7.29;100.00
32747;BME280;19118;50.860;13.662;2023-12-29T01:22:45;96540.94;;;7.33;100.00
32747;BME280;19118;50.860;13.662;2023-12-29T01:27:45;96540.84;;;7.19;100.00
32747;BME280;19118;50.860;13.662;2023-12-29T01:32:46;96534.44;;;7.07;100.00
32747;BME280;19118;50.860;13.662;2023-12-29T01:37:46;96535.44;;;7.06;100.00
32747;BME280;19118;50.860;13.662;2023-12-29T01:42:46;96529.19;;;7.07;100.00
32747;BME280;19118;50.860;13.662;2023-12-29T01:47:47;96523.16;;;7.13;100.00
32747;BME280;19118;50.860;13.662;2023-12-29T01:52:49;96521.19;;;7.15;100.00
32747;BME280;19118;50.860;13.662;2023-12-29T01:57:50;96509.66;;;6.95;100.00
32747;BME280;19118;50.860;13.662;2023-12-29T02:02:51;96502.69;;;7.09;100.00
32747;BME280;19118;50.860;13.662;2023-12-29T02:07:52;96491.59;;;7.13;100.00
32747;BME280;19118;50.860;13.662;2023-12-29T02:12:53;96501.94;;;6.93;100.00
32747;BME280;19118;50.860;13.662;2023-12-29T02:18:02;96494.25;;;6.92;100.00
32747;BME280;19118;50.860;13.662;2023-12-29T02:23:03;96503.00;;;7.20;100.00
32747;BME280;19118;50.860;13.662;2023-12-29T02:28:14;96478.72;;;7.18;100.00
32747;BME280;19118;50.860;13.662;2023-12-29T02:33:19;96475.34;;;7.03;100.00
32747;BME280;19118;50.860;13.662;2023-12-29T02:38:20;96468.84;;;6.99;100.00
32747;BME280;19118;50.860;13.662;2023-12-29T02:43:20;96471.97;;;7.09;100.00
32747;BME280;19118;50.860;13.662;2023-12-29T02:48:20;96456.38;;;7.08;100.00
32747;BME280;19118;50.860;13.662;2023-12-29T02:53:21;96446.53;;;7.38;100.00
32747;BME280;19118;50.860;13.662;2023-12-29T02:58:21;96429.56;;;7.47;100.00
32747;BME280;19118;50.860;13.662;2023-12-29T03:03:22;96423.28;;;7.41;100.00
32747;BME280;19118;50.860;13.662;2023-12-29T03:08:22;96429.34;;;7.42;100.00
32747;BME280;19118;50.860;13.662;2023-12-29T03:13:22;96426.03;;;7.33;100.00
32747;BME280;19118;50.860;13.662;2023-12-29T03:18:23;96432.41;;;7.17;100.00
32747;BME280;19118;50.860;13.662;2023-12-29T03:23:23;96445.16;;;7.20;100.00
32747;BME280;19118;50.860;13.662;2023-12-29T03:28:23;96437.88;;;7.22;100.00
32747;BME280;19118;50.860;13.662;2023-12-29T03:33:24;96436.66;;;7.18;100.00
32747;BME280;19118;50.860;13.662;2023-12-29T03:38:24;96414.72;;;7.33;100.00
32747;BME280;19118;50.860;13.662;2023-12-29T03:43:24;96417.44;;;7.46;100.00
32747;BME280;19118;50.860;13.662;2023-12-29T03:48:25;96412.22;;;7.52;100.00
32747;BME280;19118;50.860;13.662;2023-12-29T03:53:25;96418.97;;;7.68;100.00
32747;BME280;19118;50.860;13.662;2023-12-29T03:58:25;96427.34;;;7.78;100.00
32747;BME280;19118;50.860;13.662;2023-12-29T04:03:26;96434.31;;;7.93;100.00
32747;BME280;19118;50.860;13.662;2023-12-29T04:08:26;96426.72;;;8.11;100.00
32747;BME280;19118;50.860;13.662;2023-12-29T04:13:26;96429.34;;;8.04;100.00
32747;BME280;19118;50.860;13.662;2023-12-29T04:18:28;96427.78;;;7.82;100.00
32747;BME280;19118;50.860;13.662;2023-12-29T04:23:28;96443.19;;;7.85;100.00
32747;BME280;19118;50.860;13.662;2023-12-29T04:28:29;96431.13;;;7.69;100.00
32747;BME280;19118;50.860;13.662;2023-12-29T04:33:31;96436.13;;;7.57;100.00
32747;BME280;19118;50.860;13.662;2023-12-29T04:38:32;96425.56;;;7.51;100.00
32747;BME280;19118;50.860;13.662;2023-12-29T04:43:32;96417.59;;;7.38;100.00
32747;BME280;19118;50.860;13.662;2023-12-29T04:48:32;96416.53;;;7.60;100.00
32747;BME280;19118;50.860;13.662;2023-12-29T04:53:33;96420.41;;;7.36;100.00
32747;BME280;19118;50.860;13.662;2023-12-29T04:58:33;96425.47;;;7.38;100.00
32747;BME280;19118;50.860;13.662;2023-12-29T05:03:34;96424.38;;;7.25;100.00
32747;BME280;19118;50.860;13.662;2023-12-29T05:08:34;96419.13;;;7.25;100.00
32747;BME280;19118;50.860;13.662;2023-12-29T05:13:35;96427.38;;;7.22;100.00
32747;BME280;19118;50.860;13.662;2023-12-29T05:18:35;96417.00;;;7.42;100.00
32747;BME280;19118;50.860;13.662;2023-12-29T05:23:35;96425.03;;;7.62;100.00
32747;BME280;19118;50.860;13.662;2023-12-29T05:28:36;96414.66;;;7.54;100.00
32747;BME280;19118;50.860;13.662;2023-12-29T05:33:36;96423.69;;;7.45;100.00
32747;BME280;19118;50.860;13.662;2023-12-29T05:38:37;96420.34;;;7.29;100.00
32747;BME280;19118;50.860;13.662;2023-12-29T05:43:38;96438.94;;;7.56;100.00
32747;BME280;19118;50.860;13.662;2023-12-29T05:48:39;96421.47;;;7.42;100.00
32747;BME280;19118;50.860;13.662;2023-12-29T05:53:39;96433.59;;;7.43;100.00
32747;BME280;19118;50.860;13.662;2023-12-29T05:58:41;96428.75;;;7.46;100.00
32747;BME280;19118;50.860;13.662;2023-12-29T06:03:45;96423.06;;;7.43;100.00
32747;BME280;19118;50.860;13.662;2023-12-29T06:08:45;96413.78;;;7.47;100.00
32747;BME280;19118;50.860;13.662;2023-12-29T06:13:45;96410.53;;;7.45;100.00
32747;BME280;19118;50.860;13.662;2023-12-29T06:18:46;96404.06;;;7.47;100.00
32747;BME280;19118;50.860;13.662;2023-12-29T06:23:47;96383.34;;;7.31;100.00
32747;BME280;19118;50.860;13.662;2023-12-29T06:28:48;96373.78;;;7.23;100.00
32747;BME280;19118;50.860;13.662;2023-12-29T06:33:48;96380.59;;;7.46;100.00
32747;BME280;19118;50.860;13.662;2023-12-29T06:38:49;96359.56;;;7.46;100.00
32747;BME280;19118;50.860;13.662;2023-12-29T06:43:50;96360.81;;;7.50;100.00
32747;BME280;19118;50.860;13.662;2023-12-29T06:48:51;96341.94;;;7.40;100.00
32747;BME280;19118;50.860;13.662;2023-12-29T06:53:51;96348.53;;;7.29;100.00
32747;BME280;19118;50.860;13.662;2023-12-29T06:58:52;96328.06;;;7.24;100.00
32747;BME280;19118;50.860;13.662;2023-12-29T07:03:52;96316.94;;;7.22;100.00
32747;BME280;19118;50.860;13.662;2023-12-29T07:08:52;96304.88;;;7.35;100.00
32747;BME280;19118;50.860;13.662;2023-12-29T07:13:52;96317.41;;;7.33;100.00
32747;BME280;19118;50.860;13.662;2023-12-29T07:18:53;96304.41;;;7.24;100.00
32747;BME280;19118;50.860;13.662;2023-12-29T07:23:53;96305.25;;;7.25;100.00
32747;BME280;19118;50.860;13.662;2023-12-29T07:28:53;96305.06;;;7.33;100.00
32747;BME280;19118;50.860;13.662;2023-12-29T07:33:54;96302.69;;;7.45;100.00
32747;BME280;19118;50.860;13.662;2023-12-29T07:38:55;96320.50;;;7.43;100.00
32747;BME280;19118;50.860;13.662;2023-12-29T07:43:55;96319.72;;;7.49;100.00
32747;BME280;19118;50.860;13.662;2023-12-29T07:48:55;96339.69;;;7.37;100.00
32747;BME280;19118;50.860;13.662;2023-12-29T07:53:56;96352.44;;;7.40;100.00
32747;BME280;19118;50.860;13.662;2023-12-29T07:58:56;96361.28;;;7.60;100.00
32747;BME280;19118;50.860;13.662;2023-12-29T08:03:56;96364.53;;;7.69;100.00
32747;BME280;19118;50.860;13.662;2023-12-29T08:08:57;96362.53;;;7.71;100.00
32747;BME280;19118;50.860;13.662;2023-12-29T08:13:57;96376.84;;;7.96;100.00
32747;BME280;19118;50.860;13.662;2023-12-29T08:18:57;96379.47;;;7.96;100.00
32747;BME280;19118;50.860;13.662;2023-12-29T08:23:59;96405.59;;;7.98;100.00
32747;BME280;19118;50.860;13.662;2023-12-29T08:28:59;96401.22;;;8.18;100.00
32747;BME280;19118;50.860;13.662;2023-12-29T08:33:59;96410.25;;;8.43;100.00
32747;BME280;19118;50.860;13.662;2023-12-29T08:39:00;96417.94;;;8.45;100.00
32747;BME280;19118;50.860;13.662;2023-12-29T08:44:00;96426.25;;;8.49;100.00
32747;BME280;19118;50.860;13.662;2023-12-29T08:49:01;96422.28;;;8.66;100.00
32747;BME280;19118;50.860;13.662;2023-12-29T08:54:01;96415.19;;;8.73;100.00
32747;BME280;19118;50.860;13.662;2023-12-29T08:59:02;96409.94;;;8.73;100.00
32747;BME280;19118;50.860;13.662;2023-12-29T09:04:03;96419.66;;;8.92;100.00
32747;BME280;19118;50.860;13.662;2023-12-29T09:09:03;96427.97;;;8.89;100.00
32747;BME280;19118;50.860;13.662;2023-12-29T09:14:04;96403.47;;;8.95;100.00
32747;BME280;19118;50.860;13.662;2023-12-29T09:19:04;96405.91;;;8.97;100.00
32747;BME280;19118;50.860;13.662;2023-12-29T09:24:05;96394.53;;;9.10;100.00
32747;BME280;19118;50.860;13.662;2023-12-29T09:29:06;96395.34;;;9.10;100.00
32747;BME280;19118;50.860;13.662;2023-12-29T09:34:06;96395.13;;;9.05;100.00
32747;BME280;19118;50.860;13.662;2023-12-29T09:39:06;96388.03;;;9.32;100.00
32747;BME280;19118;50.860;13.662;2023-12-29T09:44:13;96378.28;;;9.13;100.00
32747;BME280;19118;50.860;13.662;2023-12-29T09:49:14;96399.81;;;9.23;100.00
32747;BME280;19118;50.860;13.662;2023-12-29T09:54:16;96380.75;;;9.21;100.00
32747;BME280;19118;50.860;13.662;2023-12-29T09:59:18;96369.34;;;9.27;100.00
32747;BME280;19118;50.860;13.662;2023-12-29T10:04:18;96380.31;;;9.37;100.00
32747;BME280;19118;50.860;13.662;2023-12-29T10:09:20;96406.50;;;9.52;100.00
32747;BME280;19118;50.860;13.662;2023-12-29T10:14:41;96394.91;;;9.53;100.00
32747;BME280;19118;50.860;13.662;2023-12-29T10:19:47;96407.50;;;9.64;100.00
32747;BME280;19118;50.860;13.662;2023-12-29T10:24:51;96427.78;;;9.57;100.00
32747;BME280;19118;50.860;13.662;2023-12-29T10:29:52;96423.25;;;9.84;100.00
32747;BME280;19118;50.860;13.662;2023-12-29T10:35:07;96427.25;;;10.06;100.00
32747;BME280;19118;50.860;13.662;2023-12-29T10:40:12;96438.28;;;9.90;100.00
32747;BME280;19118;50.860;13.662;2023-12-29T10:45:16;96438.25;;;10.03;100.00
32747;BME280;19118;50.860;13.662;2023-12-29T10:50:17;96420.72;;;10.29;100.00
32747;BME280;19118;50.860;13.662;2023-12-29T10:55:17;96441.66;;;10.17;100.00
32747;BME280;19118;50.860;13.662;2023-12-29T11:00:29;96442.75;;;9.96;100.00
32747;BME280;19118;50.860;13.662;2023-12-29T11:05:29;96433.66;;;9.79;100.00
32747;BME280;19118;50.860;13.662;2023-12-29T11:10:30;96403.81;;;9.58;100.00
32747;BME280;19118;50.860;13.662;2023-12-29T11:15:30;96404.59;;;9.72;100.00
32747;BME280;19118;50.860;13.662;2023-12-29T11:20:32;96397.28;;;9.87;100.00
32747;BME280;19118;50.860;13.662;2023-12-29T11:25:34;96395.63;;;9.93;100.00
32747;BME280;19118;50.860;13.662;2023-12-29T11:30:35;96392.19;;;9.86;100.00
32747;BME280;19118;50.860;13.662;2023-12-29T11:35:41;96390.75;;;9.97;100.00
32747;BME280;19118;50.860;13.662;2023-12-29T11:40:52;96394.38;;;10.02;100.00
32747;BME280;19118;50.860;13.662;2023-12-29T11:45:56;96403.69;;;10.11;100.00
32747;BME280;19118;50.860;13.662;2023-12-29T11:50:56;96392.91;;;10.13;100.00
32747;BME280;19118;50.860;13.662;2023-12-29T11:55:57;96393.56;;;10.08;100.00
32747;BME280;19118;50.860;13.662;2023-12-29T12:00:57;96403.84;;;10.30;100.00
32747;BME280;19118;50.860;13.662;2023-12-29T12:05:58;96397.56;;;10.24;100.00
32747;BME280;19118;50.860;13.662;2023-12-29T12:16:47;96395.75;;;10.25;100.00
32747;BME280;19118;50.860;13.662;2023-12-29T12:21:47;96393.38;;;10.48;100.00
32747;BME280;19118;50.860;13.662;2023-12-29T12:26:49;96379.50;;;10.59;100.00
32747;BME280;19118;50.860;13.662;2023-12-29T12:31:56;96379.25;;;10.29;100.00
32747;BME280;19118;50.860;13.662;2023-12-29T12:36:57;96387.31;;;10.41;100.00
32747;BME280;19118;50.860;13.662;2023-12-29T12:41:59;96375.44;;;10.57;100.00
32747;BME280;19118;50.860;13.662;2023-12-29T12:47:06;96374.16;;;10.34;100.00
32747;BME280;19118;50.860;13.662;2023-12-29T12:52:09;96369.91;;;10.27;100.00
32747;BME280;19118;50.860;13.662;2023-12-29T12:57:10;96369.63;;;9.90;100.00
32747;BME280;19118;50.860;13.662;2023-12-29T13:02:10;96370.00;;;10.00;100.00
32747;BME280;19118;50.860;13.662;2023-12-29T13:07:15;96376.91;;;9.95;100.00
32747;BME280;19118;50.860;13.662;2023-12-29T13:12:16;96375.47;;;10.05;100.00
32747;BME280;19118;50.860;13.662;2023-12-29T13:17:17;96400.44;;;10.23;100.00
32747;BME280;19118;50.860;13.662;2023-12-29T13:22:17;96391.06;;;10.20;100.00
32747;BME280;19118;50.860;13.662;2023-12-29T13:27:18;96381.28;;;10.27;100.00
32747;BME280;19118;50.860;13.662;2023-12-29T13:32:23;96367.28;;;10.27;100.00
32747;BME280;19118;50.860;13.662;2023-12-29T13:37:36;96358.16;;;10.23;100.00
32747;BME280;19118;50.860;13.662;2023-12-29T13:42:41;96356.53;;;10.22;100.00
32747;BME280;19118;50.860;13.662;2023-12-29T13:47:43;96350.38;;;10.28;100.00
32747;BME280;19118;50.860;13.662;2023-12-29T13:52:44;96347.06;;;10.39;100.00
32747;BME280;19118;50.860;13.662;2023-12-29T13:57:44;96336.56;;;10.32;100.00
32747;BME280;19118;50.860;13.662;2023-12-29T14:02:44;96340.38;;;10.43;100.00
32747;BME280;19118;50.860;13.662;2023-12-29T14:07:53;96325.19;;;10.32;100.00
32747;BME280;19118;50.860;13.662;2023-12-29T14:12:55;96340.81;;;10.33;100.00
32747;BME280;19118;50.860;13.662;2023-12-29T14:17:58;96340.53;;;10.41;100.00
32747;BME280;19118;50.860;13.662;2023-12-29T14:23:05;96348.09;;;10.38;100.00
32747;BME280;19118;50.860;13.662;2023-12-29T14:28:16;96356.38;;;10.48;100.00
32747;BME280;19118;50.860;13.662;2023-12-29T14:33:17;96350.81;;;10.25;100.00
32747;BME280;19118;50.860;13.662;2023-12-29T14:38:17;96366.59;;;10.38;100.00
32747;BME280;19118;50.860;13.662;2023-12-29T14:43:18;96356.91;;;10.32;100.00
32747;BME280;19118;50.860;13.662;2023-12-29T14:48:18;96367.34;;;10.52;100.00
32747;BME280;19118;50.860;13.662;2023-12-29T14:53:19;96365.78;;;10.37;100.00
32747;BME280;19118;50.860;13.662;2023-12-29T14:58:19;96368.22;;;10.39;100.00
32747;BME280;19118;50.860;13.662;2023-12-29T15:03:20;96356.53;;;10.22;100.00
32747;BME280;19118;50.860;13.662;2023-12-29T15:08:21;96364.47;;;10.22;100.00
32747;BME280;19118;50.860;13.662;2023-12-29T15:13:21;96358.72;;;10.31;100.00
32747;BME280;19118;50.860;13.662;2023-12-29T15:18:21;96355.66;;;10.28;100.00
32747;BME280;19118;50.860;13.662;2023-12-29T15:23:23;96342.69;;;10.19;100.00
32747;BME280;19118;50.860;13.662;2023-12-29T15:28:24;96329.03;;;10.29;100.00
32747;BME280;19118;50.860;13.662;2023-12-29T15:33:24;96334.94;;;10.18;100.00
32747;BME280;19118;50.860;13.662;2023-12-29T15:38:25;96326.44;;;10.23;100.00
32747;BME280;19118;50.860;13.662;2023-12-29T15:43:26;96312.22;;;10.24;100.00
32747;BME280;19118;50.860;13.662;2023-12-29T15:48:29;96323.19;;;10.20;100.00
32747;BME280;19118;50.860;13.662;2023-12-29T15:53:29;96311.91;;;10.00;100.00
32747;BME280;19118;50.860;13.662;2023-12-29T15:58:30;96308.59;;;10.11;100.00
32747;BME280;19118;50.860;13.662;2023-12-29T16:03:33;96320.63;;;10.01;100.00
32747;BME280;19118;50.860;13.662;2023-12-29T16:08:33;96327.84;;;10.18;100.00
32747;BME280;19118;50.860;13.662;2023-12-29T16:13:34;96321.44;;;10.01;100.00
32747;BME280;19118;50.860;13.662;2023-12-29T16:18:34;96320.69;;;9.87;100.00
32747;BME280;19118;50.860;13.662;2023-12-29T16:23:34;96310.34;;;9.86;100.00
32747;BME280;19118;50.860;13.662;2023-12-29T16:28:35;96322.81;;;9.59;100.00
32747;BME280;19118;50.860;13.662;2023-12-29T16:33:36;96320.59;;;9.56;100.00
32747;BME280;19118;50.860;13.662;2023-12-29T16:38:45;96301.53;;;9.54;100.00
32747;BME280;19118;50.860;13.662;2023-12-29T16:43:47;96300.13;;;9.38;100.00
32747;BME280;19118;50.860;13.662;2023-12-29T16:48:48;96295.69;;;9.32;100.00
32747;BME280;19118;50.860;13.662;2023-12-29T16:53:49;96306.03;;;9.27;100.00
32747;BME280;19118;50.860;13.662;2023-12-29T16:58:50;96302.78;;;9.25;100.00
32747;BME280;19118;50.860;13.662;2023-12-29T17:03:50;96291.00;;;9.34;100.00
32747;BME280;19118;50.860;13.662;2023-12-29T17:08:50;96295.47;;;9.33;100.00
32747;BME280;19118;50.860;13.662;2023-12-29T17:13:51;96311.31;;;9.27;100.00
32747;BME280;19118;50.860;13.662;2023-12-29T17:18:52;96304.06;;;9.09;100.00
32747;BME280;19118;50.860;13.662;2023-12-29T17:23:54;96302.81;;;9.12;100.00
32747;BME280;19118;50.860;13.662;2023-12-29T17:28:54;96292.28;;;9.12;100.00
32747;BME280;19118;50.860;13.662;2023-12-29T17:33:55;96297.16;;;9.08;100.00
32747;BME280;19118;50.860;13.662;2023-12-29T17:38:55;96300.78;;;9.14;100.00
32747;BME280;19118;50.860;13.662;2023-12-29T17:43:56;96312.16;;;8.94;100.00
32747;BME280;19118;50.860;13.662;2023-12-29T17:48:56;96303.84;;;9.04;100.00
32747;BME280;19118;50.860;13.662;2023-12-29T17:53:57;96291.03;;;9.14;100.00
32747;BME280;19118;50.860;13.662;2023-12-29T17:58:59;96287.00;;;9.12;100.00
32747;BME280;19118;50.860;13.662;2023-12-29T18:03:59;96279.31;;;8.97;100.00
32747;BME280;19118;50.860;13.662;2023-12-29T18:09:00;96285.59;;;8.89;100.00
32747;BME280;19118;50.860;13.662;2023-12-29T18:14:00;96276.47;;;8.92;100.00
32747;BME280;19118;50.860;13.662;2023-12-29T18:19:00;96279.28;;;9.03;100.00
32747;BME280;19118;50.860;13.662;2023-12-29T18:24:01;96287.81;;;9.05;100.00
32747;BME280;19118;50.860;13.662;2023-12-29T18:29:01;96293.47;;;9.16;100.00
32747;BME280;19118;50.860;13.662;2023-12-29T18:34:01;96293.28;;;9.11;100.00
32747;BME280;19118;50.860;13.662;2023-12-29T18:39:02;96296.31;;;9.21;100.00
32747;BME280;19118;50.860;13.662;2023-12-29T18:44:03;96294.66;;;9.33;100.00
32747;BME280;19118;50.860;13.662;2023-12-29T18:49:04;96292.63;;;9.35;100.00
32747;BME280;19118;50.860;13.662;2023-12-29T18:54:06;96285.47;;;9.49;100.00
32747;BME280;19118;50.860;13.662;2023-12-29T18:59:06;96284.13;;;9.33;100.00
32747;BME280;19118;50.860;13.662;2023-12-29T19:04:13;96297.13;;;9.15;100.00
32747;BME280;19118;50.860;13.662;2023-12-29T19:09:13;96294.09;;;9.04;100.00
32747;BME280;19118;50.860;13.662;2023-12-29T19:14:14;96289.84;;;9.03;100.00
32747;BME280;19118;50.860;13.662;2023-12-29T19:19:15;96291.06;;;8.81;100.00
32747;BME280;19118;50.860;13.662;2023-12-29T19:24:16;96295.56;;;8.61;100.00
32747;BME280;19118;50.860;13.662;2023-12-29T19:29:17;96306.91;;;8.55;100.00
32747;BME280;19118;50.860;13.662;2023-12-29T19:34:17;96303.03;;;8.57;100.00
32747;BME280;19118;50.860;13.662;2023-12-29T19:39:19;96300.19;;;8.45;100.00
32747;BME280;19118;50.860;13.662;2023-12-29T19:44:19;96293.31;;;8.44;100.00
32747;BME280;19118;50.860;13.662;2023-12-29T19:49:19;96282.56;;;8.46;100.00
32747;BME280;19118;50.860;13.662;2023-12-29T19:54:20;96279.31;;;8.44;100.00
32747;BME280;19118;50.860;13.662;2023-12-29T19:59:21;96280.34;;;8.50;100.00
32747;BME280;19118;50.860;13.662;2023-12-29T20:04:21;96289.25;;;8.49;100.00
32747;BME280;19118;50.860;13.662;2023-12-29T20:09:21;96278.50;;;8.57;100.00
32747;BME280;19118;50.860;13.662;2023-12-29T20:14:22;96283.19;;;8.74;100.00
32747;BME280;19118;50.860;13.662;2023-12-29T20:19:22;96289.44;;;9.00;100.00
32747;BME280;19118;50.860;13.662;2023-12-29T20:24:23;96289.81;;;9.30;100.00
32747;BME280;19118;50.860;13.662;2023-12-29T20:29:23;96291.56;;;9.49;100.00
32747;BME280;19118;50.860;13.662;2023-12-29T20:34:24;96290.09;;;9.67;100.00
32747;BME280;19118;50.860;13.662;2023-12-29T20:39:24;96295.16;;;9.75;100.00
32747;BME280;19118;50.860;13.662;2023-12-29T20:44:25;96295.91;;;9.82;100.00
32747;BME280;19118;50.860;13.662;2023-12-29T20:49:25;96296.06;;;9.93;100.00
32747;BME280;19118;50.860;13.662;2023-12-29T20:54:25;96294.06;;;9.89;100.00
32747;BME280;19118;50.860;13.662;2023-12-29T20:59:26;96291.22;;;9.90;100.00
32747;BME280;19118;50.860;13.662;2023-12-29T21:04:26;96277.88;;;9.79;100.00
32747;BME280;19118;50.860;13.662;2023-12-29T21:09:26;96276.81;;;9.86;100.00
32747;BME280;19118;50.860;13.662;2023-12-29T21:14:27;96273.28;;;9.99;100.00
32747;BME280;19118;50.860;13.662;2023-12-29T21:19:27;96277.19;;;9.97;100.00
32747;BME280;19118;50.860;13.662;2023-12-29T21:24:27;96263.22;;;9.83;100.00
32747;BME280;19118;50.860;13.662;2023-12-29T21:29:28;96279.84;;;9.90;100.00
32747;BME280;19118;50.860;13.662;2023-12-29T21:34:28;96257.25;;;9.94;100.00
32747;BME280;19118;50.860;13.662;2023-12-29T21:39:28;96256.22;;;9.95;100.00
32747;BME280;19118;50.860;13.662;2023-12-29T21:44:29;96249.59;;;9.86;100.00
32747;BME280;19118;50.860;13.662;2023-12-29T21:49:29;96258.72;;;9.90;100.00
32747;BME280;19118;50.860;13.662;2023-12-29T21:54:29;96257.56;;;9.73;100.00
32747;BME280;19118;50.860;13.662;2023-12-29T21:59:29;96231.22;;;9.66;100.00
32747;BME280;19118;50.860;13.662;2023-12-29T22:04:30;96234.63;;;9.22;100.00
32747;BME280;19118;50.860;13.662;2023-12-29T22:09:30;96244.00;;;9.04;100.00
32747;BME280;19118;50.860;13.662;2023-12-29T22:14:31;96242.28;;;9.37;100.00
32747;BME280;19118;50.860;13.662;2023-12-29T22:19:31;96237.47;;;9.20;100.00
32747;BME280;19118;50.860;13.662;2023-12-29T22:24:32;96242.72;;;9.27;100.00
32747;BME280;19118;50.860;13.662;2023-12-29T22:29:32;96260.47;;;9.58;100.00
32747;BME280;19118;50.860;13.662;2023-12-29T22:34:33;96254.41;;;9.57;100.00
32747;BME280;19118;50.860;13.662;2023-12-29T22:39:33;96243.69;;;9.84;100.00
32747;BME280;19118;50.860;13.662;2023-12-29T22:44:36;96255.50;;;9.81;100.00
32747;BME280;19118;50.860;13.662;2023-12-29T22:49:37;96243.03;;;9.57;100.00
32747;BME280;19118;50.860;13.662;2023-12-29T22:54:37;96233.41;;;9.24;100.00
32747;BME280;19118;50.860;13.662;2023-12-29T22:59:37;96245.59;;;9.05;100.00
32747;BME280;19118;50.860;13.662;2023-12-29T23:04:38;96240.56;;;8.97;100.00
32747;BME280;19118;50.860;13.662;2023-12-29T23:09:39;96224.16;;;8.89;100.00
32747;BME280;19118;50.860;13.662;2023-12-29T23:14:39;96229.78;;;9.12;100.00
32747;BME280;19118;50.860;13.662;2023-12-29T23:19:39;96229.28;;;9.42;100.00
32747;BME280;19118;50.860;13.662;2023-12-29T23:24:42;96219.69;;;9.54;100.00
32747;BME280;19118;50.860;13.662;2023-12-29T23:29:42;96219.91;;;9.52;100.00
32747;BME280;19118;50.860;13.662;2023-12-29T23:34:42;96231.13;;;9.41;100.00
32747;BME280;19118;50.860;13.662;2023-12-29T23:39:43;96215.47;;;9.40;100.00
32747;BME280;19118;50.860;13.662;2023-12-29T23:44:43;96226.00;;;9.46;100.00
32747;BME280;19118;50.860;13.662;2023-12-29T23:49:43;96219.66;;;9.60;100.00
32747;BME280;19118;50.860;13.662;2023-12-29T23:54:44;96203.28;;;9.45;100.00
32747;BME280;19118;50.860;13.662;2023-12-29T23:59:45;96202.56;;;9.25;100.00
